GOOY

Léopold Sédar Senghor International Airport

Dakar, Senegal
METAR GOOY 211200Z 36010KT CAVOK 21/17 Q1012
Observed Flight Rules
Feb-21 @ 12:00 UTC (an hour ago) Visual Flight Rules
Wind Visibility Clouds
360° at 10 knots 10,000+ meters
  • Clear skies
Temperatures Readings
Current 21°C / 70°F
Dewpoint 17°C / 63°F
Humidity 78%
Altimeter 29.88" Hg
Pressure 1012 hPa
Elevation 24
METAR GOOY 211200Z 36010KT CAVOK 21/17 Q1012
Observed Flight Rules
Feb-21 @ 12:00 UTC
(an hour ago)
VFR
Wind Visibility
360° at 10 knots 10,000+ meters
Clouds
  • Clear skies
Temperature Dewpoint
21°C / 70°F 17°C / 63°F
Humidity Altimeter Pressure
78% 29.88" Hg 1012 hPa